Time;durP1;ratioP1;P1;durP2;ratioP2;P2;SDS_P1;SDS_P2;PMS_P1;PMS_P2;Temp;Humidity;BMP_temperature;BMP_pressure;BME280_temperature;BME280_humidity;BME280_pressure;Samples;Min_cycle;Max_cycle;Signal;HPM_P1;HPM_P2
2021/09/20 00:01:39;;;;;;;0.40;0.20;;;13.40;99.90;;;;;;5032504;28;20390;-68
2021/09/20 00:04:04;;;;;;;0.40;0.30;;;13.40;99.90;;;;;;5032436;28;20906;-68
2021/09/20 00:06:30;;;;;;;0.40;0.20;;;13.50;99.90;;;;;;5031298;28;20383;-67
2021/09/20 00:08:56;;;;;;;0.40;0.30;;;13.30;99.90;;;;;;5012256;28;20590;-67
2021/09/20 00:11:22;;;;;;;0.40;0.20;;;13.30;99.90;;;;;;5013002;28;20476;-68
2021/09/20 00:13:47;;;;;;;0.40;0.20;;;13.40;99.90;;;;;;5012161;28;20415;-68
2021/09/20 00:16:13;;;;;;;0.40;0.20;;;13.30;99.90;;;;;;5012193;28;20491;-67
2021/09/20 00:18:39;;;;;;;0.40;0.30;;;13.30;99.90;;;;;;5012018;28;20888;-68
2021/09/20 00:21:04;;;;;;;0.40;0.20;;;13.30;99.90;;;;;;5012906;28;20397;-68
2021/09/20 00:23:30;;;;;;;0.40;0.20;;;13.30;99.90;;;;;;5012953;28;20400;-69
2021/09/20 00:25:58;;;;;;;0.40;0.20;;;13.40;99.90;;;;;;5012171;28;20372;-69
2021/09/20 00:28:25;;;;;;;0.40;0.20;;;13.40;99.90;;;;;;5012819;28;20412;-69
2021/09/20 00:30:51;;;;;;;0.40;0.20;;;13.40;99.90;;;;;;5012108;28;20393;-68
2021/09/20 00:33:17;;;;;;;0.40;0.20;;;13.40;99.90;;;;;;5012461;28;20440;-70
2021/09/20 00:35:42;;;;;;;0.40;0.20;;;13.30;99.90;;;;;;5012066;28;20377;-70
2021/09/20 00:38:08;;;;;;;0.40;0.30;;;13.30;99.90;;;;;;5012609;28;20476;-70
2021/09/20 00:40:34;;;;;;;0.40;0.20;;;13.40;99.90;;;;;;5012109;28;20876;-71
2021/09/20 00:43:00;;;;;;;0.40;0.30;;;13.30;99.90;;;;;;5012944;28;20388;-70
2021/09/20 00:45:26;;;;;;;0.40;0.20;;;13.40;99.90;;;;;;5012340;28;20404;-69
2021/09/20 00:47:52;;;;;;;0.40;0.20;;;13.40;99.90;;;;;;5011911;28;20401;-70
2021/09/20 00:50:18;;;;;;;0.40;0.30;;;13.40;99.90;;;;;;5012277;28;20395;-70
2021/09/20 00:52:44;;;;;;;0.40;0.20;;;13.40;99.90;;;;;;5011849;28;20495;-69
2021/09/20 00:55:11;;;;;;;0.40;0.20;;;13.30;99.90;;;;;;4994879;28;20392;-69
2021/09/20 00:57:39;;;;;;;0.40;0.20;;;13.30;99.90;;;;;;5011743;28;20434;-69
2021/09/20 01:00:05;;;;;;;0.40;0.20;;;13.30;99.90;;;;;;5012153;28;20969;-68
2021/09/20 01:02:31;;;;;;;0.40;0.30;;;13.30;99.90;;;;;;5012095;28;20389;-68
2021/09/20 01:04:57;;;;;;;0.40;0.20;;;13.40;99.90;;;;;;5011518;28;20849;-69
2021/09/20 01:07:22;;;;;;;0.40;0.20;;;13.40;99.90;;;;;;5011951;28;20396;-69
2021/09/20 01:09:48;;;;;;;0.40;0.20;;;13.40;99.90;;;;;;5011421;28;20388;-69
2021/09/20 01:12:14;;;;;;;0.40;0.20;;;13.40;99.90;;;;;;5011987;28;20396;-68
2021/09/20 01:14:40;;;;;;;0.40;0.20;;;13.30;99.90;;;;;;5011291;28;20480;-69
2021/09/20 01:17:06;;;;;;;0.40;0.20;;;13.30;99.90;;;;;;5011811;28;20789;-68
2021/09/20 01:19:32;;;;;;;0.40;0.30;;;13.30;99.90;;;;;;5011784;28;20764;-68
2021/09/20 01:22:03;;;;;;;0.40;0.30;;;13.30;99.90;;;;;;5011271;28;20472;-68
2021/09/20 01:24:29;;;;;;;0.40;0.30;;;13.40;99.90;;;;;;5011855;28;20381;-68
2021/09/20 01:27:03;;;;;;;0.40;0.20;;;13.40;99.90;;;;;;5010428;28;20457;-68
2021/09/20 01:29:29;;;;;;;0.40;0.30;;;13.40;99.90;;;;;;5011938;28;20862;-68
2021/09/20 01:31:57;;;;;;;0.40;0.30;;;13.50;99.90;;;;;;5011027;28;20393;-68
2021/09/20 01:34:24;;;;;;;0.40;0.20;;;13.30;99.90;;;;;;5011355;28;20435;-68
2021/09/20 01:36:51;;;;;;;0.40;0.20;;;13.50;99.90;;;;;;5010900;28;20397;-67
2021/09/20 01:39:28;;;;;;;0.40;0.20;;;13.30;99.90;;;;;;5011341;28;20452;-67
2021/09/20 01:41:54;;;;;;;0.40;0.30;;;13.40;99.90;;;;;;5010911;28;20400;-68
2021/09/20 01:44:21;;;;;;;0.40;0.20;;;13.30;99.90;;;;;;5011578;28;20416;-67
2021/09/20 01:46:49;;;;;;;0.40;0.20;;;13.30;99.90;;;;;;5010809;28;20384;-68
2021/09/20 01:49:15;;;;;;;0.40;0.20;;;13.30;99.90;;;;;;5011472;28;20392;-67
2021/09/20 01:51:41;;;;;;;0.40;0.20;;;13.30;99.90;;;;;;5010772;28;20714;-67
2021/09/20 01:54:08;;;;;;;0.40;0.30;;;13.40;99.90;;;;;;5011503;28;20388;-67
2021/09/20 01:56:35;;;;;;;0.40;0.20;;;13.30;99.90;;;;;;5011354;28;20392;-67
2021/09/20 01:59:02;;;;;;;0.40;0.20;;;13.30;99.90;;;;;;5010746;28;20742;-67
2021/09/20 02:01:28;;;;;;;0.40;0.20;;;13.30;99.90;;;;;;5011357;28;20656;-67
2021/09/20 02:03:54;;;;;;;0.40;0.20;;;13.40;99.90;;;;;;5010521;28;20946;-68
2021/09/20 02:06:21;;;;;;;0.40;0.20;;;13.40;99.90;;;;;;5011237;28;20391;-68
2021/09/20 02:08:48;;;;;;;0.40;0.20;;;13.30;99.90;;;;;;5030147;28;20473;-70
2021/09/20 02:11:14;;;;;;;0.40;0.20;;;13.30;99.90;;;;;;5030520;28;20411;-71
2021/09/20 02:13:40;;;;;;;0.40;0.20;;;13.40;99.90;;;;;;5030149;28;20411;-71
2021/09/20 02:16:06;;;;;;;0.40;0.30;;;13.40;99.90;;;;;;5030528;28;20893;-70
2021/09/20 02:18:31;;;;;;;0.40;0.20;;;13.30;99.90;;;;;;5030826;28;20544;-69
2021/09/20 02:20:58;;;;;;;0.40;0.20;;;13.30;99.90;;;;;;5029878;28;20384;-68
2021/09/20 02:23:23;;;;;;;0.40;0.20;;;13.20;99.90;;;;;;5031081;28;20391;-69
2021/09/20 02:25:49;;;;;;;0.40;0.30;;;13.20;99.90;;;;;;5030216;28;20410;-70
2021/09/20 02:28:15;;;;;;;0.40;0.30;;;13.30;99.90;;;;;;5030741;28;20387;-70
2021/09/20 02:30:41;;;;;;;0.40;0.20;;;13.30;99.90;;;;;;5012259;28;20438;-71
2021/09/20 02:33:07;;;;;;;0.40;0.20;;;13.30;99.90;;;;;;5030846;28;20447;-71
2021/09/20 02:35:33;;;;;;;0.40;0.20;;;13.30;99.90;;;;;;5030311;28;20387;-72
2021/09/20 02:37:59;;;;;;;0.40;0.20;;;13.30;99.90;;;;;;5031637;28;20428;-72
2021/09/20 02:40:25;;;;;;;0.40;0.20;;;13.30;99.90;;;;;;5034148;28;20767;-72
2021/09/20 02:42:51;;;;;;;0.40;0.20;;;13.40;99.90;;;;;;5033626;28;20879;-72
2021/09/20 02:45:17;;;;;;;0.40;0.20;;;13.30;99.90;;;;;;5034150;28;20396;-71
2021/09/20 02:47:43;;;;;;;0.40;0.20;;;13.20;99.90;;;;;;5033579;28;20437;-72
2021/09/20 02:50:11;;;;;;;0.40;0.30;;;13.20;99.90;;;;;;5034467;28;20499;-72
2021/09/20 02:52:37;;;;;;;0.40;0.20;;;13.20;99.90;;;;;;5034592;28;20901;-72
2021/09/20 02:55:03;;;;;;;0.40;0.30;;;13.20;99.90;;;;;;5033871;28;20387;-71
2021/09/20 02:57:30;;;;;;;0.40;0.20;;;13.30;99.90;;;;;;5034168;28;20392;-71
2021/09/20 02:59:56;;;;;;;0.40;0.20;;;13.30;99.90;;;;;;5033737;28;20414;-71
2021/09/20 03:02:21;;;;;;;0.60;0.60;;;13.30;99.90;;;;;;5033955;28;20905;-70
2021/09/20 03:04:47;;;;;;;0.40;0.20;;;13.30;99.90;;;;;;5033656;28;20454;-71
2021/09/20 03:07:12;;;;;;;0.40;0.20;;;13.30;99.90;;;;;;5034151;28;20383;-71
2021/09/20 03:09:38;;;;;;;0.40;0.20;;;13.30;99.90;;;;;;5033771;28;20448;-71
2021/09/20 03:12:04;;;;;;;0.40;0.30;;;13.30;99.90;;;;;;5033230;28;20402;-71
2021/09/20 03:14:30;;;;;;;0.40;0.20;;;13.20;99.90;;;;;;5034315;28;20415;-71
2021/09/20 03:16:55;;;;;;;0.40;0.30;;;13.40;99.90;;;;;;5033029;28;20709;-71
2021/09/20 03:19:21;;;;;;;0.40;0.20;;;13.30;99.90;;;;;;5034076;28;20522;-71
2021/09/20 03:21:47;;;;;;;0.40;0.20;;;13.40;99.90;;;;;;5033214;28;20438;-71
2021/09/20 03:24:13;;;;;;;0.40;0.20;;;13.40;99.90;;;;;;5033818;28;20379;-71
2021/09/20 03:26:40;;;;;;;0.40;0.28;;;13.40;99.90;;;;;;5033708;28;20399;-72
2021/09/20 03:29:06;;;;;;;0.40;0.30;;;13.40;99.90;;;;;;5033079;28;20387;-72
2021/09/20 03:31:32;;;;;;;0.40;0.20;;;13.40;99.90;;;;;;5033361;28;20387;-71
2021/09/20 03:33:57;;;;;;;0.40;0.20;;;13.30;99.90;;;;;;5033060;28;20380;-72
2021/09/20 03:36:23;;;;;;;0.40;0.20;;;13.30;99.90;;;;;;5033463;28;20387;-72
2021/09/20 03:38:50;;;;;;;0.40;0.20;;;13.30;99.90;;;;;;5032584;28;20476;-72
2021/09/20 03:41:15;;;;;;;0.40;0.20;;;13.40;99.90;;;;;;5033092;28;20847;-71
2021/09/20 03:43:41;;;;;;;0.40;0.20;;;13.40;99.90;;;;;;5033183;28;20392;-71
2021/09/20 03:46:07;;;;;;;0.40;0.30;;;13.40;99.90;;;;;;5032785;28;20387;-71
2021/09/20 03:48:32;;;;;;;0.40;0.20;;;13.40;99.90;;;;;;5033259;28;20376;-72
2021/09/20 03:50:58;;;;;;;0.40;0.20;;;13.40;99.90;;;;;;5031704;28;20384;-72
2021/09/20 03:53:24;;;;;;;0.40;0.30;;;13.50;99.90;;;;;;5032935;28;20384;-71
2021/09/20 03:55:50;;;;;;;0.40;0.20;;;13.40;99.90;;;;;;5014923;28;20395;-72
2021/09/20 03:58:15;;;;;;;0.40;0.20;;;13.40;99.90;;;;;;5032892;28;20477;-71
2021/09/20 04:00:41;;;;;;;0.40;0.20;;;13.40;99.90;;;;;;5032923;28;20745;-71
2021/09/20 04:03:09;;;;;;;0.40;0.20;;;13.40;99.90;;;;;;5032340;28;20386;-71
2021/09/20 04:05:34;;;;;;;0.40;0.20;;;13.40;99.90;;;;;;5033105;28;20731;-72
2021/09/20 04:08:00;;;;;;;0.40;0.20;;;13.50;99.90;;;;;;5018026;28;20395;-72
2021/09/20 04:10:25;;;;;;;0.40;0.20;;;13.50;99.90;;;;;;5012923;28;20396;-71
2021/09/20 04:12:51;;;;;;;0.40;0.20;;;13.50;99.90;;;;;;5011726;28;20743;-72
2021/09/20 04:15:17;;;;;;;0.40;0.20;;;13.40;99.90;;;;;;5013168;28;20389;-72
2021/09/20 04:17:42;;;;;;;0.40;0.20;;;13.40;99.90;;;;;;5012604;28;20404;-71
2021/09/20 04:20:09;;;;;;;0.40;0.20;;;13.40;99.90;;;;;;5012076;28;20479;-71
2021/09/20 04:22:34;;;;;;;0.40;0.25;;;13.40;99.90;;;;;;4994319;28;20522;-71
2021/09/20 04:25:00;;;;;;;0.40;0.23;;;13.40;99.90;;;;;;4998107;28;20968;-72
2021/09/20 04:27:26;;;;;;;0.40;0.20;;;13.30;99.90;;;;;;5023658;28;20475;-71
2021/09/20 04:29:51;;;;;;;0.40;0.20;;;13.40;99.90;;;;;;5022421;28;20468;-72
2021/09/20 04:32:17;;;;;;;0.40;0.20;;;13.50;99.90;;;;;;5021466;28;20526;-72
2021/09/20 04:34:43;;;;;;;0.40;0.20;;;13.50;99.90;;;;;;5016682;28;20419;-71
2021/09/20 04:37:08;;;;;;;0.40;0.20;;;13.40;99.90;;;;;;4994063;28;20381;-72
2021/09/20 04:39:34;;;;;;;0.40;0.20;;;13.30;99.90;;;;;;5017034;28;20513;-72
2021/09/20 04:42:02;;;;;;;0.40;0.30;;;13.40;99.90;;;;;;5015696;28;20410;-72
2021/09/20 04:44:28;;;;;;;0.40;0.30;;;13.30;99.90;;;;;;5016807;28;20876;-72
2021/09/20 04:46:53;;;;;;;0.40;0.30;;;13.40;99.90;;;;;;4991017;28;20494;-73
2021/09/20 04:49:19;;;;;;;0.40;0.20;;;13.30;99.90;;;;;;5016468;28;20429;-72
2021/09/20 04:51:45;;;;;;;0.40;0.20;;;13.40;99.90;;;;;;5016260;28;20383;-72
2021/09/20 04:54:10;;;;;;;0.40;0.20;;;13.30;99.90;;;;;;5016692;28;20418;-72
2021/09/20 04:56:36;;;;;;;0.40;0.30;;;13.30;99.90;;;;;;5014851;28;20400;-72
2021/09/20 04:59:02;;;;;;;0.40;0.20;;;13.30;99.90;;;;;;5016476;28;20419;-72
2021/09/20 05:01:27;;;;;;;0.40;0.20;;;13.30;99.90;;;;;;5017432;28;20414;-72
2021/09/20 05:03:53;;;;;;;0.40;0.20;;;13.30;99.90;;;;;;5017125;28;20406;-73
2021/09/20 05:06:18;;;;;;;0.40;0.20;;;13.30;99.90;;;;;;5018290;28;20872;-72
2021/09/20 05:08:44;;;;;;;0.40;0.30;;;13.30;99.90;;;;;;5016629;28;20410;-72
2021/09/20 05:11:10;;;;;;;0.40;0.30;;;13.20;99.90;;;;;;5016573;28;20391;-72
2021/09/20 05:13:35;;;;;;;0.40;0.20;;;13.20;99.90;;;;;;5016212;28;20407;-72
2021/09/20 05:16:01;;;;;;;0.40;0.20;;;13.20;99.90;;;;;;5017001;28;20386;-72
2021/09/20 05:18:27;;;;;;;0.40;0.20;;;13.30;99.90;;;;;;4997922;28;20502;-72
2021/09/20 05:20:52;;;;;;;0.40;0.20;;;13.40;99.90;;;;;;4998735;28;20411;-72
2021/09/20 05:23:18;;;;;;;0.40;0.30;;;13.30;99.90;;;;;;5017086;28;20398;-72
2021/09/20 05:25:44;;;;;;;0.40;0.20;;;13.20;99.90;;;;;;5017846;28;20741;-72
2021/09/20 05:28:09;;;;;;;0.40;0.20;;;13.40;99.90;;;;;;5016031;28;21183;-72
2021/09/20 05:30:35;;;;;;;0.40;0.20;;;13.40;99.90;;;;;;5017484;28;20984;-73
2021/09/20 05:33:01;;;;;;;0.40;0.20;;;13.40;99.90;;;;;;5014962;28;20960;-73
2021/09/20 05:35:27;;;;;;;0.40;0.30;;;13.40;99.90;;;;;;5016459;28;20390;-73
2021/09/20 05:37:53;;;;;;;0.40;0.20;;;13.40;99.90;;;;;;5015648;28;20410;-73
2021/09/20 05:40:22;;;;;;;0.40;0.30;;;13.50;99.90;;;;;;5017694;28;20418;-73
2021/09/20 05:42:47;;;;;;;0.40;0.40;;;13.40;99.90;;;;;;5016115;28;21205;-72
2021/09/20 05:45:13;;;;;;;0.40;0.20;;;13.40;99.90;;;;;;5016725;28;20473;-73
2021/09/20 05:47:39;;;;;;;0.40;0.30;;;13.50;99.90;;;;;;5016579;28;20386;-73
2021/09/20 05:50:06;;;;;;;0.40;0.20;;;13.60;99.90;;;;;;5017517;28;20487;-73
2021/09/20 05:52:32;;;;;;;0.40;0.20;;;13.60;99.90;;;;;;5016630;28;20414;-73
2021/09/20 05:54:58;;;;;;;0.40;0.25;;;13.60;99.90;;;;;;5016621;28;20505;-73
2021/09/20 05:57:23;;;;;;;0.40;0.30;;;13.60;99.90;;;;;;5017291;28;20783;-73
2021/09/20 05:59:49;;;;;;;0.40;0.20;;;13.50;99.90;;;;;;5016770;28;20878;-72
2021/09/20 06:02:17;;;;;;;0.40;0.25;;;13.50;99.90;;;;;;5016723;28;21016;-73
2021/09/20 06:04:44;;;;;;;0.40;0.20;;;13.50;99.90;;;;;;5017182;28;20386;-73
2021/09/20 06:07:10;;;;;;;0.40;0.20;;;13.50;99.90;;;;;;5014304;28;20393;-73
2021/09/20 06:09:36;;;;;;;0.40;0.30;;;13.60;99.90;;;;;;5015863;28;20456;-73
2021/09/20 06:12:05;;;;;;;0.40;0.20;;;13.60;99.90;;;;;;5015177;28;20410;-73
2021/09/20 06:14:31;;;;;;;0.40;0.30;;;13.60;99.90;;;;;;5015511;28;20934;-73
2021/09/20 06:16:58;;;;;;;0.40;0.20;;;13.60;99.90;;;;;;5013779;28;20833;-73
2021/09/20 06:19:24;;;;;;;0.40;0.30;;;13.70;99.90;;;;;;5015791;28;20842;-73
2021/09/20 06:21:50;;;;;;;0.40;0.20;;;13.70;99.90;;;;;;5015097;28;20546;-72
2021/09/20 06:24:16;;;;;;;0.40;0.30;;;13.60;99.90;;;;;;5014995;28;21002;-73
2021/09/20 06:26:43;;;;;;;0.40;0.30;;;13.60;99.90;;;;;;5014868;28;20395;-73
2021/09/20 06:29:10;;;;;;;0.40;0.30;;;13.70;99.90;;;;;;5014085;28;20400;-73
2021/09/20 06:31:37;;;;;;;0.40;0.20;;;13.60;99.90;;;;;;5016446;28;20477;-73
2021/09/20 06:34:03;;;;;;;0.40;0.20;;;13.60;99.90;;;;;;5014899;28;20474;-72
2021/09/20 06:36:29;;;;;;;0.40;0.20;;;13.60;99.90;;;;;;5015220;28;20382;-73
2021/09/20 06:38:54;;;;;;;0.40;0.20;;;13.50;99.90;;;;;;5014119;28;20425;-73
2021/09/20 06:41:20;;;;;;;0.40;0.30;;;13.70;99.90;;;;;;5017621;28;20794;-73
2021/09/20 06:43:46;;;;;;;0.40;0.20;;;13.60;99.90;;;;;;5017981;28;20383;-73
2021/09/20 06:46:11;;;;;;;0.40;0.30;;;13.60;99.90;;;;;;5015883;28;20395;-73
2021/09/20 06:48:38;;;;;;;0.40;0.20;;;13.70;99.90;;;;;;5015579;28;20391;-73
2021/09/20 06:51:04;;;;;;;0.40;0.30;;;13.70;99.90;;;;;;5017211;28;20802;-72
2021/09/20 06:53:30;;;;;;;0.40;0.20;;;13.80;99.90;;;;;;5017682;28;20415;-73
2021/09/20 06:55:56;;;;;;;0.40;0.30;;;13.70;99.90;;;;;;5020105;28;20375;-73
2021/09/20 06:58:21;;;;;;;0.40;0.20;;;13.70;99.90;;;;;;5030406;28;20788;-73
2021/09/20 07:00:47;;;;;;;0.40;0.20;;;13.70;99.90;;;;;;5031082;28;20383;-73
2021/09/20 07:03:13;;;;;;;0.40;0.20;;;13.70;99.90;;;;;;5029336;28;20458;-73
2021/09/20 07:05:40;;;;;;;0.40;0.20;;;13.90;99.90;;;;;;5030109;28;20380;-73
2021/09/20 07:08:06;;;;;;;0.40;0.20;;;13.90;99.90;;;;;;5014394;28;20923;-73
2021/09/20 07:10:31;;;;;;;0.40;0.30;;;13.70;99.90;;;;;;5009964;28;20389;-73
2021/09/20 07:12:57;;;;;;;0.40;0.20;;;13.90;99.90;;;;;;5009643;28;20401;-73
2021/09/20 07:15:23;;;;;;;0.40;0.20;;;13.90;99.90;;;;;;4992268;28;20463;-73
2021/09/20 07:17:49;;;;;;;0.40;0.20;;;13.90;99.90;;;;;;5009959;28;20409;-73
2021/09/20 07:20:14;;;;;;;0.40;0.20;;;14.00;99.90;;;;;;4991670;28;20496;-73
2021/09/20 07:22:43;;;;;;;0.40;0.30;;;13.90;99.90;;;;;;5010032;28;20424;-73
2021/09/20 07:25:09;;;;;;;0.40;0.20;;;14.00;99.90;;;;;;5011133;28;20484;-73
2021/09/20 07:27:35;;;;;;;0.40;0.30;;;14.10;99.90;;;;;;5013554;28;20456;-73
2021/09/20 07:30:00;;;;;;;0.40;0.20;;;14.10;99.90;;;;;;5012828;28;20385;-73
2021/09/20 07:32:26;;;;;;;0.40;0.20;;;14.20;99.90;;;;;;5013363;28;20380;-74
2021/09/20 07:34:52;;;;;;;0.40;0.20;;;14.10;99.90;;;;;;5013431;28;20464;-73
2021/09/20 07:37:18;;;;;;;0.40;0.20;;;14.20;99.90;;;;;;5013169;28;20451;-74
2021/09/20 07:39:43;;;;;;;0.40;0.20;;;14.30;99.90;;;;;;5013274;28;20401;-74
2021/09/20 07:42:09;;;;;;;0.40;0.20;;;14.30;99.90;;;;;;5012643;28;20397;-74
2021/09/20 07:44:35;;;;;;;0.40;0.20;;;14.40;99.90;;;;;;5013544;28;20844;-73
2021/09/20 07:47:01;;;;;;;0.40;0.30;;;14.50;99.90;;;;;;5013304;28;20377;-74
2021/09/20 07:49:27;;;;;;;0.40;0.20;;;14.40;99.90;;;;;;5014143;28;20714;-73
2021/09/20 07:51:53;;;;;;;0.40;0.20;;;14.40;99.90;;;;;;5013426;28;20856;-73
2021/09/20 07:54:18;;;;;;;0.40;0.20;;;14.40;99.90;;;;;;5013287;28;20373;-74
2021/09/20 07:56:44;;;;;;;0.40;0.20;;;14.50;99.90;;;;;;5013789;28;20388;-74
2021/09/20 07:59:10;;;;;;;0.40;0.30;;;14.70;99.90;;;;;;5013076;28;20408;-74
2021/09/20 08:01:35;;;;;;;0.40;0.20;;;14.60;99.90;;;;;;5014111;28;20685;-74
2021/09/20 08:04:01;;;;;;;0.40;0.20;;;14.70;99.90;;;;;;5012692;28;20381;-72
2021/09/20 08:06:28;;;;;;;0.40;0.30;;;14.70;99.90;;;;;;5013793;28;20735;-73
2021/09/20 08:08:54;;;;;;;0.40;0.20;;;14.60;99.90;;;;;;5013225;28;20845;-73
2021/09/20 08:11:21;;;;;;;0.40;0.20;;;14.50;99.90;;;;;;5012821;28;20702;-74
2021/09/20 08:13:47;;;;;;;0.40;0.30;;;14.50;99.90;;;;;;5013479;28;20420;-74
2021/09/20 08:16:13;;;;;;;0.40;0.30;;;14.60;99.90;;;;;;5012826;28;20427;-74
2021/09/20 08:18:40;;;;;;;0.40;0.30;;;14.60;99.90;;;;;;5013259;28;20379;-74
2021/09/20 08:21:06;;;;;;;0.40;0.20;;;14.70;99.90;;;;;;5012650;28;20377;-74
2021/09/20 08:23:33;;;;;;;0.40;0.20;;;14.80;99.90;;;;;;5013197;28;20417;-73
2021/09/20 08:25:58;;;;;;;0.40;0.30;;;14.90;99.90;;;;;;5013296;28;20381;-73
2021/09/20 08:28:24;;;;;;;0.40;0.20;;;15.00;99.90;;;;;;5012489;28;20439;-74
2021/09/20 08:30:50;;;;;;;0.40;0.20;;;15.00;99.90;;;;;;5012833;28;20419;-74
2021/09/20 08:33:16;;;;;;;0.40;0.20;;;15.10;99.90;;;;;;5012179;28;20881;-74
2021/09/20 08:35:42;;;;;;;0.40;0.20;;;15.00;99.90;;;;;;5012871;28;20427;-74
2021/09/20 08:38:08;;;;;;;0.40;0.22;;;15.10;99.90;;;;;;5012338;28;20377;-74
2021/09/20 08:40:34;;;;;;;0.40;0.20;;;15.20;99.90;;;;;;5012764;28;20408;-74
2021/09/20 08:43:01;;;;;;;0.40;0.20;;;15.00;99.90;;;;;;5012982;28;20405;-74
2021/09/20 08:45:27;;;;;;;0.40;0.20;;;15.00;99.90;;;;;;5012299;28;20391;-74
2021/09/20 08:47:55;;;;;;;0.40;0.20;;;15.30;99.90;;;;;;5024156;28;20392;-74
2021/09/20 08:50:31;;;;;;;0.40;0.20;;;15.20;99.90;;;;;;5012067;28;20381;-74
2021/09/20 08:52:58;;;;;;;0.40;0.20;;;15.50;99.90;;;;;;5012847;28;20385;-74
2021/09/20 08:55:24;;;;;;;0.40;0.20;;;15.60;99.90;;;;;;5012122;28;20688;-74
2021/09/20 08:57:49;;;;;;;0.40;0.30;;;15.60;99.90;;;;;;5012714;28;20797;-74
2021/09/20 09:00:15;;;;;;;0.40;0.30;;;15.70;99.90;;;;;;5011867;28;20440;-74
2021/09/20 09:02:41;;;;;;;0.40;0.30;;;15.60;99.90;;;;;;5012529;28;20377;-74
2021/09/20 09:05:27;;;;;;;0.40;0.20;;;15.50;99.90;;;;;;5011933;28;20829;-74
2021/09/20 09:08:03;;;;;;;0.40;0.20;;;15.60;99.90;;;;;;5004089;28;20869;-74
2021/09/20 09:10:31;;;;;;;0.40;0.20;;;15.80;99.90;;;;;;5011823;28;20420;-73
2021/09/20 09:12:57;;;;;;;0.40;0.30;;;15.70;99.90;;;;;;5011915;28;20415;-74
2021/09/20 09:15:25;;;;;;;0.40;0.30;;;15.30;99.90;;;;;;5011726;28;20424;-74
2021/09/20 09:17:54;;;;;;;0.40;0.20;;;15.20;99.90;;;;;;5012317;28;20416;-74
2021/09/20 09:20:29;;;;;;;0.40;0.30;;;15.60;99.90;;;;;;5011451;28;20409;-74
2021/09/20 09:23:07;;;;;;;0.40;0.20;;;16.00;99.90;;;;;;5012326;28;20856;-73
2021/09/20 09:25:39;;;;;;;0.40;0.20;;;16.10;99.90;;;;;;4994561;28;20400;-73
2021/09/20 09:28:27;;;;;;;0.40;0.20;;;16.20;99.90;;;;;;5012092;28;20392;-73
2021/09/20 09:31:02;;;;;;;0.40;0.20;;;16.40;99.90;;;;;;5011871;28;20880;-74
2021/09/20 09:33:38;;;;;;;0.40;0.20;;;16.50;99.90;;;;;;5011579;28;20387;-74
2021/09/20 09:36:05;;;;;;;0.40;0.20;;;16.50;99.90;;;;;;5011931;28;20475;-73
2021/09/20 09:38:31;;;;;;;0.40;0.20;;;16.30;99.90;;;;;;5011417;28;20381;-74
2021/09/20 09:40:59;;;;;;;0.40;0.30;;;16.50;99.90;;;;;;5011553;28;20383;-74
2021/09/20 09:43:31;;;;;;;0.40;0.30;;;16.30;99.90;;;;;;5010847;28;20447;-74
2021/09/20 09:46:02;;;;;;;0.40;0.20;;;15.90;99.90;;;;;;5011842;28;20385;-73
2021/09/20 09:48:33;;;;;;;0.40;0.20;;;15.80;99.90;;;;;;5010615;28;20373;-73
2021/09/20 09:51:02;;;;;;;0.40;0.30;;;15.80;99.90;;;;;;5011631;28;20388;-74
2021/09/20 09:53:39;;;;;;;0.40;0.20;;;16.00;99.90;;;;;;4992834;28;20392;-74
2021/09/20 09:56:14;;;;;;;0.40;0.30;;;16.00;99.90;;;;;;5010918;28;20409;-73
2021/09/20 09:59:00;;;;;;;0.40;0.20;;;16.20;99.90;;;;;;5011553;28;20515;-73
2021/09/20 10:01:38;;;;;;;0.40;0.30;;;16.10;99.90;;;;;;5010880;28;20389;-73
2021/09/20 10:04:15;;;;;;;0.40;0.20;;;16.40;99.90;;;;;;4993996;28;20792;-74
2021/09/20 10:06:40;;;;;;;0.40;0.20;;;16.60;99.90;;;;;;4996719;28;20498;-73
2021/09/20 10:09:08;;;;;;;0.40;0.20;;;16.70;99.90;;;;;;5013547;28;20805;-74
2021/09/20 10:11:38;;;;;;;0.40;0.30;;;16.80;99.90;;;;;;5031210;28;20399;-73
2021/09/20 10:14:04;;;;;;;0.40;0.20;;;16.80;99.90;;;;;;5031091;28;20410;-73
2021/09/20 10:16:34;;;;;;;0.40;0.20;;;17.00;99.90;;;;;;5012734;28;20398;-73
2021/09/20 10:19:00;;;;;;;0.40;0.20;;;17.00;99.90;;;;;;5030862;28;20429;-74
2021/09/20 10:21:27;;;;;;;0.40;0.30;;;16.80;99.90;;;;;;5030458;28;20399;-73
2021/09/20 10:23:54;;;;;;;0.40;0.20;;;17.00;99.90;;;;;;5030825;28;20391;-74
2021/09/20 10:26:21;;;;;;;0.40;0.30;;;17.20;99.90;;;;;;5030345;28;20486;-74
2021/09/20 10:28:53;;;;;;;0.40;0.30;;;17.50;99.90;;;;;;5013296;28;20387;-73
2021/09/20 10:31:20;;;;;;;0.40;0.30;;;17.30;99.90;;;;;;5030198;28;20383;-74
2021/09/20 10:33:46;;;;;;;0.40;0.30;;;17.20;99.90;;;;;;5030806;28;20894;-74
2021/09/20 10:36:12;;;;;;;0.40;0.30;;;17.20;99.90;;;;;;5030234;28;20407;-74
2021/09/20 10:38:37;;;;;;;0.40;0.30;;;17.50;99.90;;;;;;5031003;28;20375;-74
2021/09/20 10:41:13;;;;;;;0.40;0.20;;;17.30;99.90;;;;;;5030441;28;20474;-75
2021/09/20 10:44:06;;;;;;;0.40;0.20;;;17.20;99.90;;;;;;5013181;28;20387;-73
2021/09/20 10:46:34;;;;;;;0.40;0.20;;;17.40;99.90;;;;;;5029913;28;20384;-73
2021/09/20 10:49:02;;;;;;;0.40;0.20;;;17.70;99.90;;;;;;5030868;28;20474;-73
2021/09/20 10:51:37;;;;;;;0.40;0.20;;;17.20;99.90;;;;;;5029858;28;20866;-73
2021/09/20 10:54:23;;;;;;;0.40;0.30;;;17.20;99.90;;;;;;5030897;28;20395;-73
2021/09/20 10:56:52;;;;;;;0.40;0.30;;;17.10;99.90;;;;;;5030571;28;20394;-73
2021/09/20 10:59:19;;;;;;;0.40;0.20;;;17.20;99.90;;;;;;5032159;28;20868;-73
2021/09/20 11:01:56;;;;;;;0.40;0.30;;;17.20;99.90;;;;;;5016316;28;20391;-73
2021/09/20 11:04:27;;;;;;;0.40;0.20;;;16.80;99.90;;;;;;5016250;28;20889;-73
2021/09/20 11:07:06;;;;;;;0.40;0.30;;;17.10;99.90;;;;;;5034336;28;20387;-73
2021/09/20 11:09:39;;;;;;;0.40;0.30;;;17.10;99.90;;;;;;5015974;28;20493;-72
2021/09/20 11:12:12;;;;;;;0.40;0.20;;;17.40;99.90;;;;;;5016426;28;20751;-73
2021/09/20 11:14:58;;;;;;;0.40;0.20;;;17.10;99.90;;;;;;5033695;28;20439;-73
2021/09/20 11:17:42;;;;;;;0.40;0.22;;;17.70;99.90;;;;;;5033373;28;20405;-73
2021/09/20 11:20:25;;;;;;;0.40;0.20;;;17.90;99.90;;;;;;5033978;28;20836;-73
2021/09/20 11:23:22;;;;;;;0.40;0.30;;;18.00;99.90;;;;;;5016586;28;20410;-73
2021/09/20 11:26:09;;;;;;;0.40;0.30;;;18.10;99.90;;;;;;5033996;28;20442;-74
2021/09/20 11:28:40;;;;;;;0.40;0.30;;;19.50;99.90;;;;;;5033295;28;20410;-74
2021/09/20 11:31:06;;;;;;;0.40;0.30;;;19.80;99.90;;;;;;5033535;28;20389;-73
2021/09/20 11:33:44;;;;;;;0.40;0.30;;;19.20;99.90;;;;;;5033138;28;20470;-74
2021/09/20 11:36:18;;;;;;;0.40;0.30;;;18.80;99.90;;;;;;5033934;28;20417;-72
2021/09/20 11:38:44;;;;;;;0.40;0.30;;;18.60;99.90;;;;;;5033793;28;20391;-72
2021/09/20 11:41:25;;;;;;;0.40;0.30;;;18.20;99.90;;;;;;5032958;28;20396;-73
2021/09/20 11:43:53;;;;;;;0.40;0.20;;;18.40;99.90;;;;;;5032756;28;20507;-72
2021/09/20 11:46:21;;;;;;;0.40;0.30;;;17.80;99.90;;;;;;5032404;28;20426;-74
2021/09/20 11:48:47;;;;;;;0.40;0.25;;;17.80;99.90;;;;;;5033180;28;20736;-73
2021/09/20 11:51:13;;;;;;;0.40;0.30;;;18.10;99.90;;;;;;5015474;28;20376;-73
2021/09/20 11:53:39;;;;;;;0.40;0.30;;;18.40;99.90;;;;;;5032492;28;20380;-73
2021/09/20 11:56:05;;;;;;;0.40;0.30;;;17.80;99.90;;;;;;5033460;28;20420;-73
2021/09/20 11:58:30;;;;;;;0.40;0.20;;;17.60;99.90;;;;;;5032164;28;20409;-73
2021/09/20 12:00:56;;;;;;;0.40;0.30;;;17.80;99.90;;;;;;5032969;28;20430;-73
2021/09/20 12:03:25;;;;;;;0.40;0.20;;;17.90;99.90;;;;;;5032470;28;20441;-73
2021/09/20 12:05:51;;;;;;;0.40;0.30;;;17.60;99.90;;;;;;5032725;28;20445;-73
2021/09/20 12:08:22;;;;;;;0.85;0.52;;;17.70;99.90;;;;;;5016220;28;20399;-74
2021/09/20 12:10:55;;;;;;;0.40;0.20;;;17.80;99.90;;;;;;5012635;28;20393;-73
2021/09/20 12:13:23;;;;;;;0.40;0.20;;;17.90;99.90;;;;;;5011814;28;20420;-73
2021/09/20 12:15:52;;;;;;;0.40;0.20;;;17.90;99.90;;;;;;5012557;28;20405;-73
2021/09/20 12:18:28;;;;;;;0.40;0.30;;;18.00;99.90;;;;;;5012680;28;20377;-74
2021/09/20 12:21:00;;;;;;;0.40;0.20;;;17.70;99.90;;;;;;5012242;28;20475;-73
2021/09/20 12:23:34;;;;;;;0.40;0.30;;;17.50;99.90;;;;;;5011970;28;20391;-73
2021/09/20 12:26:08;;;;;;;0.40;0.30;;;17.40;99.90;;;;;;5012634;28;20385;-73
2021/09/20 12:28:58;;;;;;;0.40;0.30;;;17.50;99.90;;;;;;5011928;28;20412;-73
2021/09/20 12:31:36;;;;;;;0.40;0.20;;;17.60;99.90;;;;;;5011540;28;20464;-74
2021/09/20 12:34:14;;;;;;;0.40;0.20;;;17.60;99.90;;;;;;5012802;28;20742;-73
2021/09/20 12:36:52;;;;;;;0.40;0.20;;;17.40;99.90;;;;;;5011243;28;20533;-73
2021/09/20 12:39:25;;;;;;;0.40;0.20;;;17.50;99.90;;;;;;4994292;28;20471;-74
2021/09/20 12:42:03;;;;;;;0.40;0.28;;;17.40;99.90;;;;;;5012099;28;20405;-73
2021/09/20 12:44:39;;;;;;;0.40;0.30;;;17.40;99.90;;;;;;5012452;28;20486;-74
2021/09/20 12:47:18;;;;;;;0.40;0.20;;;17.30;99.90;;;;;;5046702;28;20785;-73
2021/09/20 12:50:05;;;;;;;0.40;0.30;;;17.70;99.90;;;;;;5019103;28;20403;-73
2021/09/20 12:52:34;;;;;;;0.40;0.30;;;17.80;99.90;;;;;;5030817;28;20395;-73